sensor_id;sensor_type;location;lat;lon;timestamp;temperature;humidity
31074;DHT22;17730;53.552;9.940;2022-10-16T00:01:14;14.40;99.90
31074;DHT22;17730;53.552;9.940;2022-10-16T00:03:40;14.40;99.90
31074;DHT22;17730;53.552;9.940;2022-10-16T00:06:07;14.40;99.90
31074;DHT22;17730;53.552;9.940;2022-10-16T00:08:33;14.40;99.90
31074;DHT22;17730;53.552;9.940;2022-10-16T00:11:16;14.40;99.90
31074;DHT22;17730;53.552;9.940;2022-10-16T00:13:43;14.40;99.90
31074;DHT22;17730;53.552;9.940;2022-10-16T00:16:13;14.40;99.90
31074;DHT22;17730;53.552;9.940;2022-10-16T00:18:39;14.40;99.90
31074;DHT22;17730;53.552;9.940;2022-10-16T00:21:19;14.40;99.90
31074;DHT22;17730;53.552;9.940;2022-10-16T00:23:45;14.40;99.90
31074;DHT22;17730;53.552;9.940;2022-10-16T00:26:14;14.40;99.90
31074;DHT22;17730;53.552;9.940;2022-10-16T00:28:40;14.40;99.90
31074;DHT22;17730;53.552;9.940;2022-10-16T00:31:08;14.40;99.90
31074;DHT22;17730;53.552;9.940;2022-10-16T00:33:34;14.40;99.90
31074;DHT22;17730;53.552;9.940;2022-10-16T00:36:01;14.50;99.90
31074;DHT22;17730;53.552;9.940;2022-10-16T00:38:26;14.40;99.90
31074;DHT22;17730;53.552;9.940;2022-10-16T00:40:52;14.40;99.90
31074;DHT22;17730;53.552;9.940;2022-10-16T00:46:21;14.40;99.90
31074;DHT22;17730;53.552;9.940;2022-10-16T00:48:56;14.40;99.90
31074;DHT22;17730;53.552;9.940;2022-10-16T00:51:25;14.30;99.90
31074;DHT22;17730;53.552;9.940;2022-10-16T00:53:53;14.30;99.90
31074;DHT22;17730;53.552;9.940;2022-10-16T00:56:19;14.30;99.90
31074;DHT22;17730;53.552;9.940;2022-10-16T00:58:45;14.40;99.90
31074;DHT22;17730;53.552;9.940;2022-10-16T01:01:11;14.40;99.90
31074;DHT22;17730;53.552;9.940;2022-10-16T01:03:37;14.40;99.90
31074;DHT22;17730;53.552;9.940;2022-10-16T01:08:49;14.40;99.90
31074;DHT22;17730;53.552;9.940;2022-10-16T01:11:45;14.40;99.90
31074;DHT22;17730;53.552;9.940;2022-10-16T01:14:42;14.50;99.90
31074;DHT22;17730;53.552;9.940;2022-10-16T01:17:28;14.40;99.90
31074;DHT22;17730;53.552;9.940;2022-10-16T01:22:39;14.30;99.90
31074;DHT22;17730;53.552;9.940;2022-10-16T01:25:13;14.20;99.90
31074;DHT22;17730;53.552;9.940;2022-10-16T01:27:42;14.20;99.90
31074;DHT22;17730;53.552;9.940;2022-10-16T01:30:16;14.20;99.90
31074;DHT22;17730;53.552;9.940;2022-10-16T01:32:52;14.10;99.90
31074;DHT22;17730;53.552;9.940;2022-10-16T01:35:32;14.10;99.90
31074;DHT22;17730;53.552;9.940;2022-10-16T01:40:31;14.00;99.90
31074;DHT22;17730;53.552;9.940;2022-10-16T01:43:20;14.00;99.90
31074;DHT22;17730;53.552;9.940;2022-10-16T01:45:46;13.90;99.90
31074;DHT22;17730;53.552;9.940;2022-10-16T01:48:17;13.90;99.90
31074;DHT22;17730;53.552;9.940;2022-10-16T01:50:44;13.90;99.90
31074;DHT22;17730;53.552;9.940;2022-10-16T01:53:14;13.80;99.90
31074;DHT22;17730;53.552;9.940;2022-10-16T01:55:44;13.80;99.90
31074;DHT22;17730;53.552;9.940;2022-10-16T01:58:13;13.80;99.90
31074;DHT22;17730;53.552;9.940;2022-10-16T02:00:42;13.70;99.90
31074;DHT22;17730;53.552;9.940;2022-10-16T02:03:11;13.70;99.90
31074;DHT22;17730;53.552;9.940;2022-10-16T02:05:41;13.70;99.90
31074;DHT22;17730;53.552;9.940;2022-10-16T02:08:08;13.70;99.90
31074;DHT22;17730;53.552;9.940;2022-10-16T02:10:35;13.70;99.90
31074;DHT22;17730;53.552;9.940;2022-10-16T02:13:14;13.70;99.90
31074;DHT22;17730;53.552;9.940;2022-10-16T02:15:41;13.60;99.90
31074;DHT22;17730;53.552;9.940;2022-10-16T02:18:07;13.70;99.90
31074;DHT22;17730;53.552;9.940;2022-10-16T02:20:43;13.60;99.90
31074;DHT22;17730;53.552;9.940;2022-10-16T02:23:23;13.60;99.90
31074;DHT22;17730;53.552;9.940;2022-10-16T02:25:50;13.60;99.90
31074;DHT22;17730;53.552;9.940;2022-10-16T02:28:20;13.60;99.90
31074;DHT22;17730;53.552;9.940;2022-10-16T02:30:52;13.50;99.90
31074;DHT22;17730;53.552;9.940;2022-10-16T02:33:21;13.50;99.90
31074;DHT22;17730;53.552;9.940;2022-10-16T02:35:49;13.40;99.90
31074;DHT22;17730;53.552;9.940;2022-10-16T02:38:17;13.40;99.90
31074;DHT22;17730;53.552;9.940;2022-10-16T02:40:45;13.40;99.90
31074;DHT22;17730;53.552;9.940;2022-10-16T02:43:11;13.40;99.90
31074;DHT22;17730;53.552;9.940;2022-10-16T02:45:37;13.40;99.90
31074;DHT22;17730;53.552;9.940;2022-10-16T02:48:03;13.40;99.90
31074;DHT22;17730;53.552;9.940;2022-10-16T02:50:29;13.40;99.90
31074;DHT22;17730;53.552;9.940;2022-10-16T02:52:54;13.40;99.90
31074;DHT22;17730;53.552;9.940;2022-10-16T02:55:20;13.30;99.90
31074;DHT22;17730;53.552;9.940;2022-10-16T02:57:46;13.30;99.90
31074;DHT22;17730;53.552;9.940;2022-10-16T03:00:14;13.30;99.90
31074;DHT22;17730;53.552;9.940;2022-10-16T03:02:40;13.30;99.90
31074;DHT22;17730;53.552;9.940;2022-10-16T03:05:06;13.30;99.90
31074;DHT22;17730;53.552;9.940;2022-10-16T03:07:32;13.30;99.90
31074;DHT22;17730;53.552;9.940;2022-10-16T03:09:58;13.30;99.90
31074;DHT22;17730;53.552;9.940;2022-10-16T03:12:26;13.30;99.90
31074;DHT22;17730;53.552;9.940;2022-10-16T03:14:52;13.30;99.90
31074;DHT22;17730;53.552;9.940;2022-10-16T03:17:18;13.40;99.90
31074;DHT22;17730;53.552;9.940;2022-10-16T03:19:44;13.40;99.90
31074;DHT22;17730;53.552;9.940;2022-10-16T03:22:09;13.40;99.90
31074;DHT22;17730;53.552;9.940;2022-10-16T03:24:35;13.40;99.90
31074;DHT22;17730;53.552;9.940;2022-10-16T03:27:00;13.40;99.90
31074;DHT22;17730;53.552;9.940;2022-10-16T03:29:26;13.40;99.90
31074;DHT22;17730;53.552;9.940;2022-10-16T03:31:55;13.30;99.90
31074;DHT22;17730;53.552;9.940;2022-10-16T03:34:20;13.30;99.90
31074;DHT22;17730;53.552;9.940;2022-10-16T03:36:46;13.30;99.90
31074;DHT22;17730;53.552;9.940;2022-10-16T03:39:12;13.30;99.90
31074;DHT22;17730;53.552;9.940;2022-10-16T03:41:37;13.20;99.90
31074;DHT22;17730;53.552;9.940;2022-10-16T03:44:03;13.20;99.90
31074;DHT22;17730;53.552;9.940;2022-10-16T03:46:29;13.30;99.90
31074;DHT22;17730;53.552;9.940;2022-10-16T03:48:54;13.30;99.90
31074;DHT22;17730;53.552;9.940;2022-10-16T03:51:20;13.40;99.90
31074;DHT22;17730;53.552;9.940;2022-10-16T03:53:46;13.40;99.90
31074;DHT22;17730;53.552;9.940;2022-10-16T03:56:12;13.40;99.90
31074;DHT22;17730;53.552;9.940;2022-10-16T03:58:37;13.40;99.90
31074;DHT22;17730;53.552;9.940;2022-10-16T04:01:03;13.50;99.90
31074;DHT22;17730;53.552;9.940;2022-10-16T04:03:29;13.60;99.90
31074;DHT22;17730;53.552;9.940;2022-10-16T04:05:55;13.50;99.90
31074;DHT22;17730;53.552;9.940;2022-10-16T04:08:20;13.60;99.90
31074;DHT22;17730;53.552;9.940;2022-10-16T04:10:46;13.70;99.90
31074;DHT22;17730;53.552;9.940;2022-10-16T04:13:12;13.70;99.90
31074;DHT22;17730;53.552;9.940;2022-10-16T04:15:38;13.90;99.90
31074;DHT22;17730;53.552;9.940;2022-10-16T04:18:05;13.90;99.90
31074;DHT22;17730;53.552;9.940;2022-10-16T04:20:31;13.90;99.90
31074;DHT22;17730;53.552;9.940;2022-10-16T04:22:57;13.80;99.90
31074;DHT22;17730;53.552;9.940;2022-10-16T04:25:22;13.70;99.90
31074;DHT22;17730;53.552;9.940;2022-10-16T04:27:48;13.70;99.90
31074;DHT22;17730;53.552;9.940;2022-10-16T04:30:14;13.70;99.90
31074;DHT22;17730;53.552;9.940;2022-10-16T04:32:40;13.70;99.90
31074;DHT22;17730;53.552;9.940;2022-10-16T04:35:07;13.70;99.90
31074;DHT22;17730;53.552;9.940;2022-10-16T04:37:33;13.70;99.90
31074;DHT22;17730;53.552;9.940;2022-10-16T04:39:58;13.60;99.90
31074;DHT22;17730;53.552;9.940;2022-10-16T04:42:24;13.50;99.90
31074;DHT22;17730;53.552;9.940;2022-10-16T04:44:50;13.40;99.90
31074;DHT22;17730;53.552;9.940;2022-10-16T04:47:15;13.40;99.90
31074;DHT22;17730;53.552;9.940;2022-10-16T04:49:41;13.30;99.90
31074;DHT22;17730;53.552;9.940;2022-10-16T04:52:07;13.30;99.90
31074;DHT22;17730;53.552;9.940;2022-10-16T04:54:34;13.20;99.90
31074;DHT22;17730;53.552;9.940;2022-10-16T04:57:00;13.20;99.90
31074;DHT22;17730;53.552;9.940;2022-10-16T04:59:25;13.10;99.90
31074;DHT22;17730;53.552;9.940;2022-10-16T05:01:51;13.10;99.90
31074;DHT22;17730;53.552;9.940;2022-10-16T05:04:16;13.10;99.90
31074;DHT22;17730;53.552;9.940;2022-10-16T05:06:42;13.00;99.90
31074;DHT22;17730;53.552;9.940;2022-10-16T05:09:09;13.00;99.90
31074;DHT22;17730;53.552;9.940;2022-10-16T05:11:34;13.10;99.90
31074;DHT22;17730;53.552;9.940;2022-10-16T05:14:00;13.10;99.90
31074;DHT22;17730;53.552;9.940;2022-10-16T05:16:26;13.00;99.90
31074;DHT22;17730;53.552;9.940;2022-10-16T05:18:52;13.00;99.90
31074;DHT22;17730;53.552;9.940;2022-10-16T05:21:18;13.00;99.90
31074;DHT22;17730;53.552;9.940;2022-10-16T05:23:44;13.00;99.90
31074;DHT22;17730;53.552;9.940;2022-10-16T05:26:10;13.00;99.90
31074;DHT22;17730;53.552;9.940;2022-10-16T05:28:35;13.00;99.90
31074;DHT22;17730;53.552;9.940;2022-10-16T05:31:05;13.00;99.90
31074;DHT22;17730;53.552;9.940;2022-10-16T05:33:31;13.00;99.90
31074;DHT22;17730;53.552;9.940;2022-10-16T05:35:57;13.00;99.90
31074;DHT22;17730;53.552;9.940;2022-10-16T05:38:25;13.00;99.90
31074;DHT22;17730;53.552;9.940;2022-10-16T05:40:52;13.10;99.90
31074;DHT22;17730;53.552;9.940;2022-10-16T05:43:18;13.10;99.90
31074;DHT22;17730;53.552;9.940;2022-10-16T05:45:43;13.10;99.90
31074;DHT22;17730;53.552;9.940;2022-10-16T05:48:09;13.10;99.90
31074;DHT22;17730;53.552;9.940;2022-10-16T05:50:34;13.10;99.90
31074;DHT22;17730;53.552;9.940;2022-10-16T05:53:00;13.10;99.90
31074;DHT22;17730;53.552;9.940;2022-10-16T05:55:26;13.20;99.90
31074;DHT22;17730;53.552;9.940;2022-10-16T05:57:54;13.20;99.90
31074;DHT22;17730;53.552;9.940;2022-10-16T06:00:20;13.30;99.90
31074;DHT22;17730;53.552;9.940;2022-10-16T06:02:45;13.30;99.90
31074;DHT22;17730;53.552;9.940;2022-10-16T06:05:11;13.40;99.90
31074;DHT22;17730;53.552;9.940;2022-10-16T06:07:37;13.40;99.90
31074;DHT22;17730;53.552;9.940;2022-10-16T06:10:03;13.40;99.90
31074;DHT22;17730;53.552;9.940;2022-10-16T06:12:29;13.50;99.90
31074;DHT22;17730;53.552;9.940;2022-10-16T06:14:55;13.50;99.90
31074;DHT22;17730;53.552;9.940;2022-10-16T06:17:20;13.50;99.90
31074;DHT22;17730;53.552;9.940;2022-10-16T06:19:46;13.60;99.90
31074;DHT22;17730;53.552;9.940;2022-10-16T06:22:11;13.60;99.90
31074;DHT22;17730;53.552;9.940;2022-10-16T06:24:37;13.60;99.90
31074;DHT22;17730;53.552;9.940;2022-10-16T06:27:04;13.60;99.90
31074;DHT22;17730;53.552;9.940;2022-10-16T06:29:30;13.50;99.90
31074;DHT22;17730;53.552;9.940;2022-10-16T06:31:55;13.50;99.90
31074;DHT22;17730;53.552;9.940;2022-10-16T06:34:21;13.60;99.90
31074;DHT22;17730;53.552;9.940;2022-10-16T06:36:46;13.60;99.90
31074;DHT22;17730;53.552;9.940;2022-10-16T06:39:12;13.60;99.90
31074;DHT22;17730;53.552;9.940;2022-10-16T06:41:37;13.60;99.90
31074;DHT22;17730;53.552;9.940;2022-10-16T06:44:07;13.60;99.90
31074;DHT22;17730;53.552;9.940;2022-10-16T06:46:35;13.70;99.90
31074;DHT22;17730;53.552;9.940;2022-10-16T06:49:01;13.70;99.90
31074;DHT22;17730;53.552;9.940;2022-10-16T06:51:27;13.70;99.90
31074;DHT22;17730;53.552;9.940;2022-10-16T06:53:54;13.70;99.90
31074;DHT22;17730;53.552;9.940;2022-10-16T06:56:26;13.80;99.90
31074;DHT22;17730;53.552;9.940;2022-10-16T06:58:53;13.90;99.90
31074;DHT22;17730;53.552;9.940;2022-10-16T07:01:22;14.00;99.90
31074;DHT22;17730;53.552;9.940;2022-10-16T07:03:48;14.20;99.90
31074;DHT22;17730;53.552;9.940;2022-10-16T07:06:17;14.40;99.90
31074;DHT22;17730;53.552;9.940;2022-10-16T07:08:45;14.60;99.90
31074;DHT22;17730;53.552;9.940;2022-10-16T07:11:13;14.70;99.90
31074;DHT22;17730;53.552;9.940;2022-10-16T07:13:41;15.00;99.90
31074;DHT22;17730;53.552;9.940;2022-10-16T07:16:19;15.10;99.90
31074;DHT22;17730;53.552;9.940;2022-10-16T07:18:45;15.20;99.90
31074;DHT22;17730;53.552;9.940;2022-10-16T07:21:17;15.30;99.90
31074;DHT22;17730;53.552;9.940;2022-10-16T07:23:43;15.30;99.90
31074;DHT22;17730;53.552;9.940;2022-10-16T07:26:09;15.20;99.90
31074;DHT22;17730;53.552;9.940;2022-10-16T07:28:36;15.10;99.90
31074;DHT22;17730;53.552;9.940;2022-10-16T07:31:03;15.10;99.90
31074;DHT22;17730;53.552;9.940;2022-10-16T07:33:30;15.00;99.90
31074;DHT22;17730;53.552;9.940;2022-10-16T07:35:56;15.00;99.90
31074;DHT22;17730;53.552;9.940;2022-10-16T07:38:22;15.00;99.90
31074;DHT22;17730;53.552;9.940;2022-10-16T07:40:48;15.10;99.90
31074;DHT22;17730;53.552;9.940;2022-10-16T07:43:14;15.10;99.90
31074;DHT22;17730;53.552;9.940;2022-10-16T07:45:47;15.10;99.90
31074;DHT22;17730;53.552;9.940;2022-10-16T07:48:14;15.30;99.90
31074;DHT22;17730;53.552;9.940;2022-10-16T07:50:40;15.50;99.90
31074;DHT22;17730;53.552;9.940;2022-10-16T07:53:06;15.70;99.90
31074;DHT22;17730;53.552;9.940;2022-10-16T07:55:32;15.80;99.90
31074;DHT22;17730;53.552;9.940;2022-10-16T07:57:58;15.70;99.90
31074;DHT22;17730;53.552;9.940;2022-10-16T08:00:23;15.80;99.90
31074;DHT22;17730;53.552;9.940;2022-10-16T08:02:49;15.70;99.90
31074;DHT22;17730;53.552;9.940;2022-10-16T08:05:14;15.60;99.90
31074;DHT22;17730;53.552;9.940;2022-10-16T08:07:41;15.60;99.90
31074;DHT22;17730;53.552;9.940;2022-10-16T08:10:09;15.50;99.90
31074;DHT22;17730;53.552;9.940;2022-10-16T08:12:35;15.50;99.90
31074;DHT22;17730;53.552;9.940;2022-10-16T08:15:01;15.40;99.90
31074;DHT22;17730;53.552;9.940;2022-10-16T08:17:26;15.40;99.90
31074;DHT22;17730;53.552;9.940;2022-10-16T08:19:52;15.30;99.90
31074;DHT22;17730;53.552;9.940;2022-10-16T08:22:18;15.30;99.90
31074;DHT22;17730;53.552;9.940;2022-10-16T08:24:44;15.20;99.90
31074;DHT22;17730;53.552;9.940;2022-10-16T08:27:09;15.40;99.90
31074;DHT22;17730;53.552;9.940;2022-10-16T08:29:35;15.50;99.90
31074;DHT22;17730;53.552;9.940;2022-10-16T08:32:01;15.60;99.90
31074;DHT22;17730;53.552;9.940;2022-10-16T08:34:28;15.80;99.90
31074;DHT22;17730;53.552;9.940;2022-10-16T08:36:54;16.00;99.90
31074;DHT22;17730;53.552;9.940;2022-10-16T08:39:20;16.10;99.90
31074;DHT22;17730;53.552;9.940;2022-10-16T08:49:18;16.30;99.90
31074;DHT22;17730;53.552;9.940;2022-10-16T08:51:44;16.20;99.90
31074;DHT22;17730;53.552;9.940;2022-10-16T08:56:49;16.70;99.90
31074;DHT22;17730;53.552;9.940;2022-10-16T08:59:16;16.80;99.90
31074;DHT22;17730;53.552;9.940;2022-10-16T09:01:45;16.70;99.90
31074;DHT22;17730;53.552;9.940;2022-10-16T09:04:43;16.80;99.90
31074;DHT22;17730;53.552;9.940;2022-10-16T09:25:30;17.60;99.90
31074;DHT22;17730;53.552;9.940;2022-10-16T09:27:56;17.80;99.90
31074;DHT22;17730;53.552;9.940;2022-10-16T09:30:22;18.00;99.90
31074;DHT22;17730;53.552;9.940;2022-10-16T09:32:52;18.10;99.90
31074;DHT22;17730;53.552;9.940;2022-10-16T09:38:01;18.30;99.90
31074;DHT22;17730;53.552;9.940;2022-10-16T09:40:38;18.50;99.90
31074;DHT22;17730;53.552;9.940;2022-10-16T09:45:59;18.80;99.90
31074;DHT22;17730;53.552;9.940;2022-10-16T09:48:30;18.80;99.90
31074;DHT22;17730;53.552;9.940;2022-10-16T09:50:58;18.80;99.90
31074;DHT22;17730;53.552;9.940;2022-10-16T09:53:26;18.80;99.90
31074;DHT22;17730;53.552;9.940;2022-10-16T09:56:02;18.80;99.90
31074;DHT22;17730;53.552;9.940;2022-10-16T09:58:31;18.90;99.90
31074;DHT22;17730;53.552;9.940;2022-10-16T10:00:58;19.00;99.90
31074;DHT22;17730;53.552;9.940;2022-10-16T10:06:01;18.90;99.90
31074;DHT22;17730;53.552;9.940;2022-10-16T10:08:29;18.80;99.90
31074;DHT22;17730;53.552;9.940;2022-10-16T10:10:55;18.80;99.90
31074;DHT22;17730;53.552;9.940;2022-10-16T10:13:22;18.60;99.90
31074;DHT22;17730;53.552;9.940;2022-10-16T10:15:48;18.70;99.90
31074;DHT22;17730;53.552;9.940;2022-10-16T10:18:19;18.80;99.90
31074;DHT22;17730;53.552;9.940;2022-10-16T10:20:45;18.80;99.90
31074;DHT22;17730;53.552;9.940;2022-10-16T10:23:21;18.90;99.90
31074;DHT22;17730;53.552;9.940;2022-10-16T10:25:55;19.00;99.90
31074;DHT22;17730;53.552;9.940;2022-10-16T10:31:05;19.10;99.90
31074;DHT22;17730;53.552;9.940;2022-10-16T10:33:42;19.10;99.90
31074;DHT22;17730;53.552;9.940;2022-10-16T10:39:05;19.50;99.90
31074;DHT22;17730;53.552;9.940;2022-10-16T10:46:39;19.50;99.90
31074;DHT22;17730;53.552;9.940;2022-10-16T10:54:52;19.50;99.90
31074;DHT22;17730;53.552;9.940;2022-10-16T11:02:45;19.40;99.90
31074;DHT22;17730;53.552;9.940;2022-10-16T11:08:02;19.60;99.90
31074;DHT22;17730;53.552;9.940;2022-10-16T11:10:46;19.70;99.90
31074;DHT22;17730;53.552;9.940;2022-10-16T11:15:42;20.00;99.90
31074;DHT22;17730;53.552;9.940;2022-10-16T11:18:18;20.20;99.90
31074;DHT22;17730;53.552;9.940;2022-10-16T11:20:56;20.40;99.90
31074;DHT22;17730;53.552;9.940;2022-10-16T11:23:30;20.30;99.90
31074;DHT22;17730;53.552;9.940;2022-10-16T11:26:00;20.00;99.90
31074;DHT22;17730;53.552;9.940;2022-10-16T11:28:36;20.00;99.90
31074;DHT22;17730;53.552;9.940;2022-10-16T11:31:13;20.00;99.90
31074;DHT22;17730;53.552;9.940;2022-10-16T11:36:28;20.40;99.90
31074;DHT22;17730;53.552;9.940;2022-10-16T11:39:11;20.30;99.90
31074;DHT22;17730;53.552;9.940;2022-10-16T11:41:51;20.20;99.90
31074;DHT22;17730;53.552;9.940;2022-10-16T11:44:42;20.10;99.90
31074;DHT22;17730;53.552;9.940;2022-10-16T11:47:20;20.10;99.90
31074;DHT22;17730;53.552;9.940;2022-10-16T11:49:52;19.90;99.90
31074;DHT22;17730;53.552;9.940;2022-10-16T11:52:39;19.70;99.90
31074;DHT22;17730;53.552;9.940;2022-10-16T11:55:20;19.50;99.90
31074;DHT22;17730;53.552;9.940;2022-10-16T11:57:56;19.40;99.90
31074;DHT22;17730;53.552;9.940;2022-10-16T12:00:39;19.30;99.90
31074;DHT22;17730;53.552;9.940;2022-10-16T12:06:37;18.90;99.90
31074;DHT22;17730;53.552;9.940;2022-10-16T12:09:05;18.50;99.90
31074;DHT22;17730;53.552;9.940;2022-10-16T12:11:36;18.40;99.90
31074;DHT22;17730;53.552;9.940;2022-10-16T12:16:38;18.30;99.90
31074;DHT22;17730;53.552;9.940;2022-10-16T12:19:13;18.10;99.90
31074;DHT22;17730;53.552;9.940;2022-10-16T12:21:39;18.10;99.90
31074;DHT22;17730;53.552;9.940;2022-10-16T12:24:06;18.00;99.90
31074;DHT22;17730;53.552;9.940;2022-10-16T12:26:45;18.00;99.90
31074;DHT22;17730;53.552;9.940;2022-10-16T12:29:14;18.20;99.90
31074;DHT22;17730;53.552;9.940;2022-10-16T12:31:47;18.50;99.90
31074;DHT22;17730;53.552;9.940;2022-10-16T12:36:47;19.30;99.90
31074;DHT22;17730;53.552;9.940;2022-10-16T12:39:24;19.40;99.90
31074;DHT22;17730;53.552;9.940;2022-10-16T12:42:05;19.40;99.90
31074;DHT22;17730;53.552;9.940;2022-10-16T12:44:34;19.20;99.90
31074;DHT22;17730;53.552;9.940;2022-10-16T12:47:00;19.30;99.80
31074;DHT22;17730;53.552;9.940;2022-10-16T12:49:30;19.40;99.50
31074;DHT22;17730;53.552;9.940;2022-10-16T12:51:56;19.50;99.40
31074;DHT22;17730;53.552;9.940;2022-10-16T12:54:34;19.40;99.40
31074;DHT22;17730;53.552;9.940;2022-10-16T12:57:16;19.30;99.50
31074;DHT22;17730;53.552;9.940;2022-10-16T13:10:44;19.30;99.90
31074;DHT22;17730;53.552;9.940;2022-10-16T13:16:00;19.50;99.70
31074;DHT22;17730;53.552;9.940;2022-10-16T13:24:45;19.50;99.70
31074;DHT22;17730;53.552;9.940;2022-10-16T13:27:20;19.50;99.30
31074;DHT22;17730;53.552;9.940;2022-10-16T13:29:53;19.60;99.70
31074;DHT22;17730;53.552;9.940;2022-10-16T13:32:21;19.60;99.20
31074;DHT22;17730;53.552;9.940;2022-10-16T13:34:48;19.70;99.00
31074;DHT22;17730;53.552;9.940;2022-10-16T13:37:22;19.70;98.80
31074;DHT22;17730;53.552;9.940;2022-10-16T13:39:48;19.70;98.80
31074;DHT22;17730;53.552;9.940;2022-10-16T13:42:26;19.70;98.70
31074;DHT22;17730;53.552;9.940;2022-10-16T13:44:54;19.70;98.70
31074;DHT22;17730;53.552;9.940;2022-10-16T13:47:22;19.70;98.80
31074;DHT22;17730;53.552;9.940;2022-10-16T13:50:18;19.70;98.70
31074;DHT22;17730;53.552;9.940;2022-10-16T13:52:44;19.70;99.00
31074;DHT22;17730;53.552;9.940;2022-10-16T13:55:14;19.70;99.20
31074;DHT22;17730;53.552;9.940;2022-10-16T13:57:41;19.80;98.70
31074;DHT22;17730;53.552;9.940;2022-10-16T14:00:24;19.80;98.20
31074;DHT22;17730;53.552;9.940;2022-10-16T14:03:11;19.90;98.10
31074;DHT22;17730;53.552;9.940;2022-10-16T14:05:45;20.00;98.00
31074;DHT22;17730;53.552;9.940;2022-10-16T14:08:12;20.00;97.50
31074;DHT22;17730;53.552;9.940;2022-10-16T14:10:38;19.90;97.80
31074;DHT22;17730;53.552;9.940;2022-10-16T14:13:06;19.80;98.00
31074;DHT22;17730;53.552;9.940;2022-10-16T14:15:35;19.70;98.60
31074;DHT22;17730;53.552;9.940;2022-10-16T14:18:02;19.80;98.60
31074;DHT22;17730;53.552;9.940;2022-10-16T14:20:33;19.80;98.80
31074;DHT22;17730;53.552;9.940;2022-10-16T14:23:29;19.90;98.60
31074;DHT22;17730;53.552;9.940;2022-10-16T14:28:39;19.80;99.00
31074;DHT22;17730;53.552;9.940;2022-10-16T14:33:54;19.90;98.70
31074;DHT22;17730;53.552;9.940;2022-10-16T14:36:20;19.90;99.10
31074;DHT22;17730;53.552;9.940;2022-10-16T14:41:24;19.60;99.30
31074;DHT22;17730;53.552;9.940;2022-10-16T14:43:53;19.60;99.60
31074;DHT22;17730;53.552;9.940;2022-10-16T14:46:22;19.40;99.70
31074;DHT22;17730;53.552;9.940;2022-10-16T14:48:59;19.30;99.90
31074;DHT22;17730;53.552;9.940;2022-10-16T14:51:26;19.30;99.60
31074;DHT22;17730;53.552;9.940;2022-10-16T14:53:51;19.30;99.90
31074;DHT22;17730;53.552;9.940;2022-10-16T14:56:20;19.20;99.90
31074;DHT22;17730;53.552;9.940;2022-10-16T14:58:47;19.20;99.90
31074;DHT22;17730;53.552;9.940;2022-10-16T15:01:13;19.10;99.90
31074;DHT22;17730;53.552;9.940;2022-10-16T15:03:38;19.00;99.90
31074;DHT22;17730;53.552;9.940;2022-10-16T15:06:10;18.80;99.90
31074;DHT22;17730;53.552;9.940;2022-10-16T15:08:36;18.70;99.90
31074;DHT22;17730;53.552;9.940;2022-10-16T15:11:02;18.60;99.90
31074;DHT22;17730;53.552;9.940;2022-10-16T15:13:28;18.50;99.90
31074;DHT22;17730;53.552;9.940;2022-10-16T15:15:54;18.40;99.90
31074;DHT22;17730;53.552;9.940;2022-10-16T15:18:19;18.30;99.90
31074;DHT22;17730;53.552;9.940;2022-10-16T15:20:50;18.20;99.90
31074;DHT22;17730;53.552;9.940;2022-10-16T15:23:18;18.10;99.90
31074;DHT22;17730;53.552;9.940;2022-10-16T15:28:16;17.90;99.90
31074;DHT22;17730;53.552;9.940;2022-10-16T15:30:42;17.80;99.90
31074;DHT22;17730;53.552;9.940;2022-10-16T15:33:13;17.70;99.90
31074;DHT22;17730;53.552;9.940;2022-10-16T15:35:40;17.60;99.90
31074;DHT22;17730;53.552;9.940;2022-10-16T15:38:05;17.50;99.90
31074;DHT22;17730;53.552;9.940;2022-10-16T15:40:31;17.40;99.90
31074;DHT22;17730;53.552;9.940;2022-10-16T15:42:56;17.30;99.90
31074;DHT22;17730;53.552;9.940;2022-10-16T15:45:22;17.20;99.90
31074;DHT22;17730;53.552;9.940;2022-10-16T15:47:48;17.10;99.90
31074;DHT22;17730;53.552;9.940;2022-10-16T15:50:15;17.00;99.90
31074;DHT22;17730;53.552;9.940;2022-10-16T15:52:41;16.90;99.90
31074;DHT22;17730;53.552;9.940;2022-10-16T15:55:08;16.80;99.90
31074;DHT22;17730;53.552;9.940;2022-10-16T15:57:35;16.80;99.90
31074;DHT22;17730;53.552;9.940;2022-10-16T16:00:05;16.60;99.90
31074;DHT22;17730;53.552;9.940;2022-10-16T16:02:31;16.60;99.90
31074;DHT22;17730;53.552;9.940;2022-10-16T16:04:56;16.50;99.90
31074;DHT22;17730;53.552;9.940;2022-10-16T16:07:22;16.40;99.90
31074;DHT22;17730;53.552;9.940;2022-10-16T16:09:47;16.30;99.90
31074;DHT22;17730;53.552;9.940;2022-10-16T16:12:13;16.20;99.90
31074;DHT22;17730;53.552;9.940;2022-10-16T16:14:39;16.10;99.90
31074;DHT22;17730;53.552;9.940;2022-10-16T16:17:05;16.00;99.90
31074;DHT22;17730;53.552;9.940;2022-10-16T16:19:30;15.80;99.90
31074;DHT22;17730;53.552;9.940;2022-10-16T16:21:57;15.80;99.90
31074;DHT22;17730;53.552;9.940;2022-10-16T16:24:22;15.70;99.90
31074;DHT22;17730;53.552;9.940;2022-10-16T16:26:48;15.60;99.90
31074;DHT22;17730;53.552;9.940;2022-10-16T16:29:15;15.50;99.90
31074;DHT22;17730;53.552;9.940;2022-10-16T16:31:41;15.50;99.90
31074;DHT22;17730;53.552;9.940;2022-10-16T16:34:07;15.50;99.90
31074;DHT22;17730;53.552;9.940;2022-10-16T16:36:34;15.40;99.90
31074;DHT22;17730;53.552;9.940;2022-10-16T16:39:00;15.40;99.90
31074;DHT22;17730;53.552;9.940;2022-10-16T16:41:27;15.30;99.90
31074;DHT22;17730;53.552;9.940;2022-10-16T16:43:54;15.30;99.90
31074;DHT22;17730;53.552;9.940;2022-10-16T16:46:20;15.20;99.90
31074;DHT22;17730;53.552;9.940;2022-10-16T16:48:46;15.10;99.90
31074;DHT22;17730;53.552;9.940;2022-10-16T16:51:17;15.10;99.90
31074;DHT22;17730;53.552;9.940;2022-10-16T16:53:49;15.00;99.90
31074;DHT22;17730;53.552;9.940;2022-10-16T16:56:16;15.00;99.90
31074;DHT22;17730;53.552;9.940;2022-10-16T16:58:44;15.00;99.90
31074;DHT22;17730;53.552;9.940;2022-10-16T17:01:10;15.00;99.90
31074;DHT22;17730;53.552;9.940;2022-10-16T17:03:36;14.90;99.90
31074;DHT22;17730;53.552;9.940;2022-10-16T17:06:04;14.90;99.90
31074;DHT22;17730;53.552;9.940;2022-10-16T17:08:30;14.80;99.90
31074;DHT22;17730;53.552;9.940;2022-10-16T17:10:57;14.70;99.90
31074;DHT22;17730;53.552;9.940;2022-10-16T17:13:24;14.70;99.90
31074;DHT22;17730;53.552;9.940;2022-10-16T17:15:51;14.60;99.90
31074;DHT22;17730;53.552;9.940;2022-10-16T17:18:17;14.60;99.90
31074;DHT22;17730;53.552;9.940;2022-10-16T17:20:43;14.60;99.90
31074;DHT22;17730;53.552;9.940;2022-10-16T17:23:11;14.60;99.90
31074;DHT22;17730;53.552;9.940;2022-10-16T17:25:38;14.50;99.90
31074;DHT22;17730;53.552;9.940;2022-10-16T17:28:05;14.50;99.90
31074;DHT22;17730;53.552;9.940;2022-10-16T17:30:31;14.40;99.90
31074;DHT22;17730;53.552;9.940;2022-10-16T17:33:00;14.40;99.90
31074;DHT22;17730;53.552;9.940;2022-10-16T17:35:26;14.40;99.90